Time;durP1;ratioP1;P1;durP2;ratioP2;P2;SDS_P1;SDS_P2;PMS_P1;PMS_P2;Temp;Humidity;BMP_temperature;BMP_pressure;BME280_temperature;BME280_humidity;BME280_pressure;Samples;Min_cycle;Max_cycle;Signal;HPM_P1;HPM_P2
2021/11/23 00:02:18;;;;;;;1.29;0.80;;;;;;;2.01;75.28;100387.72;1997289;81;20346;-77
2021/11/23 00:05:22;;;;;;;1.54;0.80;;;;;;;1.97;75.29;100384.94;1997966;81;20400;-77
2021/11/23 00:08:25;;;;;;;2.08;0.82;;;;;;;1.91;75.55;100385.53;1998883;81;20334;-77
2021/11/23 00:11:28;;;;;;;0.76;0.73;;;;;;;1.88;75.61;100382.84;1994650;81;20344;-77
2021/11/23 00:14:30;;;;;;;1.91;0.70;;;;;;;1.87;75.80;100377.66;1999076;81;20315;-76
2021/11/23 00:17:33;;;;;;;2.66;0.88;;;;;;;1.83;75.75;100386.00;1996289;78;25269;-77
2021/11/23 00:20:36;;;;;;;1.30;1.00;;;;;;;1.77;75.78;100384.03;1995794;81;20307;-77
2021/11/23 00:23:39;;;;;;;1.80;0.85;;;;;;;1.70;76.19;100393.13;1998495;80;20378;-77
2021/11/23 00:26:42;;;;;;;0.98;0.82;;;;;;;1.68;76.24;100391.28;2002527;81;20345;-77
2021/11/23 00:29:44;;;;;;;0.99;0.80;;;;;;;1.69;76.53;100393.03;2005661;81;20325;-77
2021/11/23 00:35:50;;;;;;;1.00;0.88;;;;;;;1.70;76.73;100393.13;2003447;81;20443;-77
2021/11/23 00:38:53;;;;;;;1.55;1.20;;;;;;;1.68;76.82;100406.66;1997692;81;20393;-77
2021/11/23 00:41:56;;;;;;;3.38;1.30;;;;;;;1.65;76.81;100406.50;2003200;81;20351;-77
2021/11/23 00:44:58;;;;;;;2.19;1.10;;;;;;;1.61;76.58;100407.13;2001734;81;21042;-77
2021/11/23 00:48:02;;;;;;;0.71;0.70;;;;;;;1.60;76.74;100407.94;1995620;78;23012;-77
2021/11/23 00:51:06;;;;;;;1.25;0.89;;;;;;;1.58;76.75;100415.56;1992353;81;20431;-77
2021/11/23 00:54:09;;;;;;;1.35;1.00;;;;;;;1.57;77.03;100418.91;1996605;81;20346;-77
2021/11/23 00:57:12;;;;;;;1.30;0.98;;;;;;;1.56;77.17;100419.72;1995833;81;20389;-77
2021/11/23 01:00:15;;;;;;;2.59;0.98;;;;;;;1.55;77.08;100423.09;1995007;81;20323;-77
2021/11/23 01:03:19;;;;;;;1.10;0.98;;;;;;;1.54;77.15;100413.66;2001612;79;26347;-77
2021/11/23 01:06:22;;;;;;;1.79;0.90;;;;;;;1.48;77.00;100409.13;1999802;81;20958;-77
2021/11/23 01:09:25;;;;;;;2.49;1.01;;;;;;;1.42;76.76;100413.06;2001474;81;20329;-77
2021/11/23 01:12:28;;;;;;;2.74;1.29;;;;;;;1.35;76.76;100409.34;1999690;81;20343;-77
2021/11/23 01:15:30;;;;;;;1.50;1.11;;;;;;;1.32;76.93;100411.75;1999242;78;22719;-77
2021/11/23 01:18:34;;;;;;;2.30;1.30;;;;;;;1.22;77.16;100414.66;2000951;81;20391;-77
2021/11/23 01:21:38;;;;;;;4.89;1.19;;;;;;;1.07;77.20;100427.56;2000711;81;20325;-77
2021/11/23 01:24:41;;;;;;;2.08;1.48;;;;;;;0.98;77.71;100419.44;2001191;81;20313;-77
2021/11/23 01:27:43;;;;;;;2.90;1.40;;;;;;;0.85;78.03;100420.50;2000715;81;20313;-77
2021/11/23 01:30:46;;;;;;;3.92;1.21;;;;;;;0.79;78.65;100424.44;1999751;78;25018;-77
2021/11/23 01:33:49;;;;;;;4.18;1.34;;;;;;;0.68;78.95;100435.78;1999700;81;20403;-77
2021/11/23 01:36:52;;;;;;;3.28;1.38;;;;;;;0.64;79.07;100438.97;2000367;81;20377;-77
2021/11/23 01:39:54;;;;;;;3.01;1.17;;;;;;;0.61;78.92;100439.69;2000834;81;20362;-77
2021/11/23 01:42:57;;;;;;;1.80;1.05;;;;;;;0.62;78.90;100436.34;2001038;81;20317;-77
2021/11/23 01:46:01;;;;;;;1.55;1.08;;;;;;;0.62;79.01;100430.34;1998707;78;25639;-77
2021/11/23 01:49:03;;;;;;;1.77;1.10;;;;;;;0.64;79.41;100438.97;2000370;81;20380;-77
2021/11/23 01:52:06;;;;;;;0.81;0.80;;;;;;;0.61;79.79;100442.25;2000552;81;20379;-77
2021/11/23 01:55:10;;;;;;;1.23;0.98;;;;;;;0.68;79.94;100438.31;1999614;81;20776;-77
2021/11/23 01:58:13;;;;;;;1.30;0.80;;;;;;;0.74;79.93;100441.22;2001291;81;20898;-77
2021/11/23 02:01:17;;;;;;;1.46;0.95;;;;;;;0.72;79.41;100441.13;1998492;81;20333;-77
2021/11/23 02:04:20;;;;;;;1.63;0.91;;;;;;;0.78;79.71;100438.00;2000794;81;20466;-77
2021/11/23 02:07:23;;;;;;;2.39;0.94;;;;;;;0.80;79.46;100441.53;2000254;81;21054;-77
2021/11/23 02:10:26;;;;;;;2.47;0.98;;;;;;;0.80;79.42;100439.84;2000257;81;20329;-77
2021/11/23 02:13:29;;;;;;;1.92;0.80;;;;;;;0.81;79.41;100436.47;2000714;81;21123;-77
2021/11/23 02:16:32;;;;;;;1.81;0.91;;;;;;;0.84;79.46;100440.88;2001784;81;20336;-77
2021/11/23 02:19:35;;;;;;;1.01;0.80;;;;;;;0.86;79.40;100439.25;2004867;78;24382;-77
2021/11/23 02:22:38;;;;;;;5.06;1.86;;;;;;;0.86;79.24;100445.25;2004405;81;20324;-77
2021/11/23 02:25:41;;;;;;;7.85;2.84;;;;;;;0.88;79.14;100446.22;2004512;81;20394;-77
2021/11/23 02:28:46;;;;;;;7.41;2.75;;;;;;;0.87;79.08;100441.03;2003390;81;20312;-76
2021/11/23 02:31:49;;;;;;;8.36;3.00;;;;;;;0.88;79.22;100437.66;1999051;78;33303;-77
2021/11/23 02:34:52;;;;;;;6.10;2.15;;;;;;;0.85;78.82;100430.72;1995116;81;20327;-77
2021/11/23 02:37:56;;;;;;;3.61;1.41;;;;;;;0.84;78.83;100438.31;1993201;81;20311;-76
2021/11/23 02:40:59;;;;;;;2.60;1.55;;;;;;;0.81;79.02;100428.81;1993087;81;20318;-77
2021/11/23 02:44:02;;;;;;;7.36;2.38;;;;;;;0.84;79.22;100439.19;1994250;81;20358;-78
2021/11/23 02:47:06;;;;;;;7.21;2.63;;;;;;;0.82;79.21;100433.13;1994468;78;23361;-77
2021/11/23 02:50:13;;;;;;;10.23;3.42;;;;;;;0.82;79.20;100430.56;1995167;81;20925;-77
2021/11/23 02:53:15;;;;;;;10.51;3.40;;;;;;;0.84;79.34;100422.97;1993409;81;20314;-77
2021/11/23 02:56:19;;;;;;;8.34;4.14;;;;;;;0.81;79.00;100427.94;1995218;81;20872;-77
2021/11/23 02:59:22;;;;;;;8.06;4.14;;;;;;;0.79;79.09;100426.97;1994810;81;20319;-77
2021/11/23 03:02:25;;;;;;;10.64;4.76;;;;;;;0.79;79.42;100432.09;1996750;79;23479;-77
2021/11/23 03:05:28;;;;;;;4.40;2.86;;;;;;;0.79;79.46;100429.53;1996113;81;20420;-77
2021/11/23 03:08:34;;;;;;;9.80;3.61;;;;;;;0.78;79.33;100428.66;1997479;81;20389;-77
2021/11/23 03:11:37;;;;;;;5.34;2.53;;;;;;;0.75;79.23;100428.50;1995205;81;20331;-77
2021/11/23 03:14:39;;;;;;;5.57;2.54;;;;;;;0.74;79.07;100416.53;1997404;81;21165;-77
2021/11/23 03:17:42;;;;;;;5.68;3.16;;;;;;;0.68;78.70;100418.75;1996971;78;28598;-77
2021/11/23 03:20:45;;;;;;;8.00;3.94;;;;;;;0.66;78.96;100420.34;2002894;81;20711;-77
2021/11/23 03:23:48;;;;;;;7.81;4.01;;;;;;;0.68;79.05;100423.00;2001263;81;20338;-77
2021/11/23 03:26:51;;;;;;;10.19;4.68;;;;;;;0.63;78.90;100409.09;2001055;81;20779;-77
2021/11/23 03:29:53;;;;;;;11.56;5.19;;;;;;;0.56;78.49;100415.59;2001071;81;21233;-77
2021/11/23 03:33:02;;;;;;;12.31;5.19;;;;;;;0.48;78.25;100421.97;2000154;78;22274;-77
2021/11/23 03:36:05;;;;;;;10.94;4.66;;;;;;;0.40;78.20;100433.47;2001181;81;20505;-77
2021/11/23 03:39:08;;;;;;;12.69;5.32;;;;;;;0.24;78.97;100426.66;2001417;81;20913;-77
2021/11/23 03:42:11;;;;;;;13.70;4.72;;;;;;;0.13;79.71;100430.31;2001777;81;20864;-77
2021/11/23 03:45:14;;;;;;;8.49;4.15;;;;;;;0.03;80.01;100431.50;1999791;81;20359;-77
2021/11/23 03:48:17;;;;;;;7.31;3.15;;;;;;;-0.05;80.17;100422.53;2001140;78;22440;-77
2021/11/23 03:51:20;;;;;;;6.14;2.84;;;;;;;-0.10;80.55;100423.97;2001007;81;20384;-77
2021/11/23 03:54:23;;;;;;;5.78;2.20;;;;;;;-0.13;81.32;100416.16;2000718;81;20968;-77
2021/11/23 03:57:26;;;;;;;1.94;1.70;;;;;;;-0.19;81.65;100415.81;2001420;81;20317;-77
2021/11/23 04:00:30;;;;;;;4.07;1.81;;;;;;;-0.29;81.83;100409.34;1999301;78;23524;-77
2021/11/23 04:03:34;;;;;;;4.97;1.98;;;;;;;-0.36;81.59;100410.69;1999894;81;20218;-77
2021/11/23 04:06:37;;;;;;;3.17;1.61;;;;;;;-0.46;81.72;100410.94;1998595;81;20797;-77
2021/11/23 04:09:42;;;;;;;2.23;1.56;;;;;;;-0.47;81.94;100410.88;1998072;81;20670;-76
2021/11/23 04:13:04;;;;;;;2.23;1.34;;;;;;;-0.47;82.42;100408.31;1998818;81;20342;-76
2021/11/23 04:16:17;;;;;;;2.42;1.50;;;;;;;-0.50;82.75;100405.59;1984615;81;981838;-76
2021/11/23 04:19:24;;;;;;;2.17;1.23;;;;;;;-0.59;82.67;100397.41;1993703;81;20272;-77
2021/11/23 04:22:32;;;;;;;2.60;1.12;;;;;;;-0.67;82.47;100395.34;1986038;81;20234;-77
2021/11/23 04:25:56;;;;;;;1.72;1.30;;;;;;;-0.73;82.65;100389.88;1996314;81;20295;-76
2021/11/23 04:29:13;;;;;;;4.13;1.40;;;;;;;-0.76;83.16;100383.72;1985673;81;20335;-76
2021/11/23 04:32:19;;;;;;;1.80;1.29;;;;;;;-0.76;83.31;100401.56;1984663;81;20248;-77
2021/11/23 04:35:40;;;;;;;1.63;1.28;;;;;;;-0.78;83.51;100404.03;1989359;81;20207;-76
2021/11/23 04:39:07;;;;;;;2.37;1.19;;;;;;;-0.81;83.73;100397.88;1990283;81;20208;-76
2021/11/23 04:42:27;;;;;;;2.39;0.93;;;;;;;-0.84;84.00;100403.69;1986700;81;20213;-76
2021/11/23 04:45:43;;;;;;;2.54;1.35;;;;;;;-0.87;84.15;100410.28;1974587;81;1241210;-76
2021/11/23 04:49:22;;;;;;;1.40;1.09;;;;;;;-0.88;84.38;100418.75;1975622;82;20385;-77
2021/11/23 04:52:43;;;;;;;1.66;1.40;;;;;;;-1.00;84.46;100418.91;1973487;82;20170;-77
2021/11/23 04:55:59;;;;;;;1.28;0.90;;;;;;;-1.05;84.79;100426.28;1998370;70;20179;-77
2021/11/23 04:59:07;;;;;;;4.07;1.71;;;;;;;-1.12;85.17;100429.25;1995887;81;20196;-76
2021/11/23 05:02:19;;;;;;;3.29;1.90;;;;;;;-1.08;85.28;100435.41;1985170;81;957325;-77
2021/11/23 05:05:39;;;;;;;4.99;1.97;;;;;;;-1.10;85.14;100434.44;1996983;81;20276;-77
2021/11/23 05:08:46;;;;;;;3.60;1.78;;;;;;;-1.14;85.24;100438.47;1995580;81;20216;-77
2021/11/23 05:11:56;;;;;;;4.14;2.01;;;;;;;-1.11;85.15;100448.84;1997402;81;20204;-76
2021/11/23 05:15:03;;;;;;;3.89;2.16;;;;;;;-1.13;84.99;100444.44;1996964;81;20187;-77
2021/11/23 05:18:10;;;;;;;5.43;2.30;;;;;;;-1.18;84.96;100439.09;1991104;81;20184;-77
2021/11/23 05:21:16;;;;;;;5.83;2.23;;;;;;;-1.23;84.84;100430.31;1991662;81;20187;-77
2021/11/23 05:24:23;;;;;;;3.69;1.96;;;;;;;-1.27;84.92;100430.88;1991575;81;20183;-77
2021/11/23 05:27:32;;;;;;;2.99;1.67;;;;;;;-1.31;84.96;100434.06;1992494;81;20296;-77
2021/11/23 05:30:36;;;;;;;3.42;1.79;;;;;;;-1.40;84.48;100436.94;1991656;81;20244;-77
2021/11/23 05:33:41;;;;;;;4.29;1.80;;;;;;;-1.44;84.70;100436.66;1996850;81;20286;-77
2021/11/23 05:36:49;;;;;;;6.02;1.56;;;;;;;-1.48;84.86;100434.72;1995989;81;20194;-77
2021/11/23 05:39:56;;;;;;;2.72;1.59;;;;;;;-1.50;85.09;100449.91;1996971;81;20781;-77
2021/11/23 05:43:03;;;;;;;3.02;2.24;;;;;;;-1.50;85.15;100452.44;1986102;81;20709;-77
2021/11/23 05:46:10;;;;;;;6.07;1.92;;;;;;;-1.58;85.05;100446.91;1983800;81;981434;-77
2021/11/23 05:49:16;;;;;;;2.17;1.64;;;;;;;-1.61;84.96;100449.28;1996264;81;20699;-77
2021/11/23 05:52:25;;;;;;;2.77;1.51;;;;;;;-1.59;84.93;100454.47;1997256;81;20171;-77
2021/11/23 05:55:29;;;;;;;4.68;1.63;;;;;;;-1.58;85.16;100462.19;1996554;81;20226;-77
2021/11/23 05:58:37;;;;;;;3.58;1.64;;;;;;;-1.62;85.13;100456.78;2001754;81;20194;-77
2021/11/23 06:01:45;;;;;;;4.61;1.67;;;;;;;-1.65;85.00;100457.50;1983593;81;959648;-76
2021/11/23 06:04:52;;;;;;;2.67;1.53;;;;;;;-1.69;84.88;100464.84;1998868;81;20238;-77
2021/11/23 06:08:05;;;;;;;3.42;2.00;;;;;;;-1.76;85.18;100466.16;1995345;81;20200;-78
2021/11/23 06:11:19;;;;;;;4.48;1.88;;;;;;;-1.78;85.32;100470.28;1989099;81;20204;-78
2021/11/23 06:18:00;;;;;;;2.28;1.46;;;;;;;-1.80;85.21;100482.00;2127924;70;20647;-77
2021/11/23 06:21:06;;;;;;;3.39;1.81;;;;;;;-1.83;85.10;100490.34;1998131;81;20349;-77
2021/11/23 06:24:12;;;;;;;3.73;1.82;;;;;;;-1.85;85.29;100498.66;1998134;81;20372;-76
2021/11/23 06:27:17;;;;;;;2.77;1.64;;;;;;;-1.89;85.27;100489.97;1997617;81;21141;-77
2021/11/23 06:30:31;;;;;;;2.50;1.69;;;;;;;-1.87;85.34;100493.47;1996762;81;20182;-77
2021/11/23 06:46:58;;;;;;;5.23;2.30;;;;;;;-1.91;85.25;100523.75;1989287;70;982367;-77
2021/11/23 06:50:01;;;;;;;2.84;1.79;;;;;;;-1.91;85.43;100524.63;1985730;81;20187;-76
2021/11/23 06:53:08;;;;;;;3.36;2.10;;;;;;;-1.92;85.57;100527.06;1985361;81;20179;-76
2021/11/23 06:56:11;;;;;;;3.86;2.21;;;;;;;-1.95;85.69;100527.75;1986803;81;20214;-76
2021/11/23 06:59:14;;;;;;;2.21;1.79;;;;;;;-1.97;85.66;100524.25;1985144;81;20180;-77
2021/11/23 07:02:21;;;;;;;4.36;2.20;;;;;;;-1.96;85.64;100523.47;1982345;79;197517;-76
2021/11/23 07:05:25;;;;;;;2.63;2.11;;;;;;;-1.96;85.71;100512.41;1985260;81;20184;-76
2021/11/23 07:08:49;;;;;;;3.79;2.30;;;;;;;-1.95;85.77;100516.69;1985490;81;20318;-76
2021/11/23 07:11:54;;;;;;;4.46;2.21;;;;;;;-2.04;85.62;100508.47;1985373;81;20235;-76
2021/11/23 07:15:00;;;;;;;4.10;2.29;;;;;;;-2.05;85.63;100515.22;1985959;81;20192;-76
2021/11/23 07:18:04;;;;;;;4.38;2.48;;;;;;;-2.06;85.79;100521.09;1989709;78;184962;-77
2021/11/23 07:21:08;;;;;;;3.83;2.34;;;;;;;-2.07;85.95;100518.47;1993493;81;20192;-77
2021/11/23 07:24:29;;;;;;;3.94;2.26;;;;;;;-2.05;85.99;100527.94;1992978;81;20190;-76
2021/11/23 07:27:33;;;;;;;5.09;2.29;;;;;;;-2.03;86.17;100533.13;1992963;81;20187;-76
2021/11/23 07:30:37;;;;;;;5.08;2.40;;;;;;;-2.00;86.34;100536.75;1991978;81;20240;-75
2021/11/23 07:33:41;;;;;;;4.19;2.53;;;;;;;-1.96;86.26;100541.28;1996825;81;20208;-76
2021/11/23 07:36:45;;;;;;;3.57;2.42;;;;;;;-1.93;86.19;100536.38;1982775;81;20263;-76
2021/11/23 07:39:49;;;;;;;5.29;2.70;;;;;;;-1.86;86.36;100535.97;1993796;81;20192;-76
2021/11/23 07:46:00;;;;;;;3.94;2.51;;;;;;;-1.74;86.60;100533.31;2141958;70;972388;-76
2021/11/23 07:49:06;;;;;;;9.26;3.21;;;;;;;-1.63;86.67;100534.84;2003613;81;20264;-78
2021/11/23 07:52:16;;;;;;;5.76;2.86;;;;;;;-1.56;86.68;100541.22;2004820;81;20640;-78
2021/11/23 07:55:38;;;;;;;4.22;3.30;;;;;;;-1.44;86.52;100548.72;2001417;81;20212;-77
2021/11/23 07:58:43;;;;;;;5.28;3.46;;;;;;;-1.35;86.45;100555.28;2007274;80;20227;-77
2021/11/23 08:01:52;;;;;;;5.84;3.49;;;;;;;-1.22;86.28;100550.16;1992966;81;20295;-77
2021/11/23 08:05:01;;;;;;;6.90;2.76;;;;;;;-1.07;86.25;100555.28;2002833;81;20200;-76
2021/11/23 08:08:21;;;;;;;10.11;4.10;;;;;;;-0.87;86.41;100558.16;1999886;81;20182;-76
2021/11/23 08:11:28;;;;;;;6.89;3.40;;;;;;;-0.65;86.25;100553.53;1995944;81;20203;-77
2021/11/23 08:14:31;;;;;;;10.31;4.23;;;;;;;-0.40;85.95;100556.69;1992796;81;20290;-76
2021/11/23 08:17:36;;;;;;;6.76;4.10;;;;;;;-0.07;85.27;100567.97;2002956;78;23943;-76
2021/11/23 08:20:53;;;;;;;8.83;4.51;;;;;;;0.25;84.29;100561.22;2001169;81;20207;-77
2021/11/23 08:23:58;;;;;;;7.66;4.29;;;;;;;0.60;83.24;100560.59;2002882;81;20292;-78
2021/11/23 08:27:04;;;;;;;9.07;4.35;;;;;;;0.95;82.13;100562.47;2004786;81;20374;-77
2021/11/23 08:30:22;;;;;;;8.46;5.07;;;;;;;1.27;81.08;100561.59;2000679;78;49352;-77
2021/11/23 08:33:38;;;;;;;15.46;6.54;;;;;;;1.54;79.88;100559.53;1995346;81;20343;-78
2021/11/23 08:36:42;;;;;;;8.60;4.79;;;;;;;1.79;78.75;100559.94;1997877;81;20353;-79
2021/11/23 08:39:46;;;;;;;8.45;5.00;;;;;;;1.99;77.83;100555.81;1997638;81;20366;-77
2021/11/23 08:42:52;;;;;;;17.45;4.70;;;;;;;2.20;77.28;100553.41;1996354;81;20340;-77
2021/11/23 08:46:02;;;;;;;10.91;4.51;;;;;;;2.43;76.67;100549.34;1996706;81;20831;-77
2021/11/23 08:49:05;;;;;;;11.24;4.50;;;;;;;2.69;76.30;100561.72;1998193;81;20379;-78
2021/11/23 08:52:09;;;;;;;7.14;4.07;;;;;;;2.92;75.69;100549.03;1999700;81;20314;-78
2021/11/23 08:55:13;;;;;;;9.46;4.16;;;;;;;3.12;74.77;100550.78;2000009;81;20337;-78
2021/11/23 08:58:17;;;;;;;10.25;4.41;;;;;;;3.31;73.99;100552.47;2000206;81;20434;-78
2021/11/23 09:01:24;;;;;;;6.50;3.80;;;;;;;3.49;73.64;100552.38;1998605;78;24491;-78
2021/11/23 09:04:29;;;;;;;9.38;3.72;;;;;;;3.69;72.96;100560.91;1999953;81;20484;-78
2021/11/23 09:07:32;;;;;;;8.85;3.72;;;;;;;3.86;72.13;100562.50;1999327;81;20831;-78
2021/11/23 09:10:38;;;;;;;6.44;3.65;;;;;;;4.03;71.46;100558.91;1999166;81;20378;-78
2021/11/23 09:13:40;;;;;;;8.16;3.86;;;;;;;4.18;71.14;100556.97;1998432;81;20337;-78
2021/11/23 09:16:43;;;;;;;6.72;2.90;;;;;;;4.31;69.42;100565.16;2001373;78;24386;-78
2021/11/23 09:19:46;;;;;;;6.46;2.90;;;;;;;4.47;68.98;100564.94;2005715;81;20421;-78
2021/11/23 09:22:49;;;;;;;4.71;2.63;;;;;;;4.59;67.55;100555.13;2005828;81;20795;-79
2021/11/23 09:25:51;;;;;;;6.57;2.67;;;;;;;4.73;67.27;100559.09;2006713;81;20324;-79
2021/11/23 09:28:55;;;;;;;6.72;2.74;;;;;;;4.95;67.23;100570.19;2006487;81;20374;-79
2021/11/23 09:31:58;;;;;;;10.39;5.19;;;;;;;5.10;65.75;100566.47;2002522;78;25047;-79
2021/11/23 09:35:02;;;;;;;4.59;2.20;;;;;;;5.21;64.60;100566.00;2001371;81;20463;-79
2021/11/23 09:38:05;;;;;;;6.41;2.17;;;;;;;5.34;63.84;100563.03;2002341;81;20434;-79
2021/11/23 09:41:08;;;;;;;4.99;1.91;;;;;;;5.50;62.99;100564.44;2002572;81;21016;-80
2021/11/23 09:44:11;;;;;;;2.91;1.73;;;;;;;5.66;62.46;100561.56;2001964;81;20351;-79
2021/11/23 09:47:14;;;;;;;1.99;1.29;;;;;;;5.74;62.54;100567.84;2003989;78;25525;-79
2021/11/23 09:50:18;;;;;;;1.66;1.09;;;;;;;5.82;62.53;100569.00;2006421;81;20320;-80
2021/11/23 09:53:21;;;;;;;2.06;0.98;;;;;;;5.80;61.31;100568.06;2005216;81;21021;-79
2021/11/23 09:56:25;;;;;;;0.89;0.70;;;;;;;5.82;61.84;100561.25;2002878;81;20431;-79
2021/11/23 09:59:28;;;;;;;1.41;0.64;;;;;;;5.78;60.49;100566.28;2005775;81;21282;-79
2021/11/23 10:02:33;;;;;;;1.20;0.70;;;;;;;5.68;60.56;100570.22;2005244;79;22229;-79
2021/11/23 10:05:39;;;;;;;2.03;0.60;;;;;;;5.57;61.09;100566.44;2006930;81;20328;-79
2021/11/23 10:08:43;;;;;;;1.08;0.57;;;;;;;5.43;61.42;100566.81;2007207;81;20316;-79
2021/11/23 10:11:46;;;;;;;0.50;0.50;;;;;;;5.34;61.46;100563.03;2006152;81;20770;-79
2021/11/23 10:15:10;;;;;;;0.81;0.50;;;;;;;5.24;60.65;100556.69;2005559;81;20366;-78
2021/11/23 10:18:15;;;;;;;0.49;0.49;;;;;;;5.22;60.19;100560.91;1993064;78;22628;-78
2021/11/23 10:21:24;;;;;;;0.71;0.50;;;;;;;5.19;59.20;100549.59;1994478;81;20314;-78
2021/11/23 10:24:34;;;;;;;;;;;;;;;5.18;57.70;100543.56;1994409;81;20744;-78
2021/11/23 10:27:42;;;;;;;0.30;0.30;;;;;;;5.20;56.83;100543.63;1993606;81;20082;-78
2021/11/23 10:30:47;;;;;;;0.35;0.30;;;;;;;5.22;57.46;100542.88;1993504;79;22543;-78
2021/11/23 10:34:07;;;;;;;1.63;0.25;;;;;;;5.20;55.80;100539.34;1999797;81;20420;-77
2021/11/23 10:37:27;;;;;;;0.30;0.30;;;;;;;5.23;55.49;100534.34;1999209;81;20325;-78
2021/11/23 10:40:31;;;;;;;1.09;0.30;;;;;;;5.24;54.40;100533.53;1998586;81;20481;-77
2021/11/23 10:43:37;;;;;;;1.49;0.30;;;;;;;5.28;54.75;100530.22;1998714;81;20351;-78
2021/11/23 10:46:41;;;;;;;0.68;0.30;;;;;;;5.32;54.96;100521.78;1996568;78;25143;-77
2021/11/23 10:49:46;;;;;;;0.85;0.20;;;;;;;5.36;55.06;100526.19;1997523;81;20313;-78
2021/11/23 10:52:50;;;;;;;1.86;0.38;;;;;;;5.38;54.52;100529.69;1998282;81;20323;-77
2021/11/23 10:55:54;;;;;;;0.45;0.31;;;;;;;5.44;54.26;100516.19;1999601;81;21496;-77
2021/11/23 10:58:57;;;;;;;1.25;0.20;;;;;;;5.48;54.43;100510.31;1999760;81;20883;-77
2021/11/23 11:02:00;;;;;;;0.66;0.20;;;;;;;5.56;54.18;100501.13;2001983;78;22602;-78
2021/11/23 11:05:05;;;;;;;0.80;0.50;;;;;;;5.61;53.94;100497.00;2004722;81;20334;-78
2021/11/23 11:08:09;;;;;;;0.64;0.40;;;;;;;5.67;54.03;100491.19;2004722;81;20375;-78
2021/11/23 11:11:16;;;;;;;1.81;0.40;;;;;;;5.72;53.86;100490.50;2007043;81;20418;-78
2021/11/23 11:14:20;;;;;;;1.55;0.47;;;;;;;5.76;53.62;100486.34;2003778;81;20734;-78
2021/11/23 11:17:24;;;;;;;3.33;0.24;;;;;;;5.83;53.21;100492.56;2003225;78;22036;-78
2021/11/23 11:20:34;;;;;;;0.79;0.32;;;;;;;5.89;53.10;100485.00;2008872;81;20357;-79
2021/11/23 11:23:42;;;;;;;0.35;0.22;;;;;;;5.94;53.16;100486.97;2004701;81;20376;-78
2021/11/23 11:26:44;;;;;;;3.08;0.45;;;;;;;6.00;52.84;100481.13;2003350;81;20313;-77
2021/11/23 11:29:47;;;;;;;1.76;0.31;;;;;;;6.08;52.88;100479.63;2003853;81;21083;-78
2021/11/23 11:32:52;;;;;;;1.41;0.39;;;;;;;6.15;52.74;100479.03;1999156;78;26813;-77
2021/11/23 11:35:55;;;;;;;0.74;0.30;;;;;;;6.21;52.35;100483.47;1999557;81;20887;-77
2021/11/23 11:38:58;;;;;;;1.73;0.32;;;;;;;6.25;52.09;100483.59;1998809;81;20380;-78
2021/11/23 11:42:01;;;;;;;2.46;0.70;;;;;;;6.32;52.25;100471.78;1999965;81;20313;-78
2021/11/23 11:45:13;;;;;;;1.55;0.64;;;;;;;6.39;52.45;100470.25;1997956;81;20373;-78
2021/11/23 11:48:22;;;;;;;1.84;0.50;;;;;;;6.45;52.21;100466.16;2005586;78;29505;-78
2021/11/23 11:51:27;;;;;;;0.41;0.30;;;;;;;6.52;52.36;100451.75;2005783;81;20951;-78
2021/11/23 11:54:30;;;;;;;0.74;0.30;;;;;;;6.56;51.36;100463.88;2007958;81;20165;-78
2021/11/23 11:57:32;;;;;;;1.55;0.40;;;;;;;6.58;50.97;100454.47;2008300;81;20392;-78
2021/11/23 12:00:41;;;;;;;0.90;0.21;;;;;;;6.62;51.21;100457.19;2003635;78;22202;-78
2021/11/23 12:03:43;;;;;;;0.47;0.26;;;;;;;6.67;51.33;100452.19;1999112;81;20731;-77
2021/11/23 12:07:06;;;;;;;0.38;0.30;;;;;;;6.75;51.53;100458.41;1999444;81;20194;-77
2021/11/23 12:10:26;;;;;;;0.35;0.22;;;;;;;6.79;51.38;100449.91;1999133;81;20852;-77
2021/11/23 12:13:51;;;;;;;0.61;0.30;;;;;;;6.85;51.68;100454.41;1998659;81;20349;-77
2021/11/23 12:17:08;;;;;;;0.98;0.32;;;;;;;6.94;51.53;100447.75;2000984;78;23162;-77
2021/11/23 12:20:50;;;;;;;0.44;0.20;;;;;;;7.02;51.56;100449.69;2003484;81;20329;-78
2021/11/23 12:24:01;;;;;;;0.84;0.30;;;;;;;7.08;51.40;100452.44;2003370;80;20414;-77
2021/11/23 12:27:12;;;;;;;1.35;0.30;;;;;;;7.15;51.83;100456.91;2005029;81;20321;-77
2021/11/23 12:30:20;;;;;;;0.69;0.30;;;;;;;7.21;51.09;100455.38;2002810;81;20309;-77
2021/11/23 12:33:23;;;;;;;1.73;0.38;;;;;;;7.28;51.53;100454.69;1997881;78;22024;-77
2021/11/23 12:36:28;;;;;;;1.19;0.30;;;;;;;7.34;51.40;100453.09;1999190;81;20317;-78
2021/11/23 12:39:38;;;;;;;1.71;0.50;;;;;;;7.37;51.14;100448.91;1998645;81;20302;-77
2021/11/23 12:42:52;;;;;;;0.66;0.49;;;;;;;7.40;51.49;100433.47;1998863;81;20313;-78
2021/11/23 12:45:55;;;;;;;1.83;0.59;;;;;;;7.42;50.94;100430.94;1998118;78;24732;-77
2021/11/23 12:48:58;;;;;;;0.68;0.39;;;;;;;7.43;51.06;100423.22;2003834;81;20340;-77
2021/11/23 12:52:10;;;;;;;1.26;0.30;;;;;;;7.44;51.02;100426.66;2003622;81;20324;-77
2021/11/23 12:55:18;;;;;;;0.71;0.30;;;;;;;7.47;51.41;100417.28;2003607;81;20632;-78
2021/11/23 12:58:20;;;;;;;3.35;0.32;;;;;;;7.49;51.05;100410.44;2004701;81;20312;-77
2021/11/23 13:01:25;;;;;;;1.30;0.40;;;;;;;7.53;51.02;100406.22;2000572;78;23654;-79
2021/11/23 13:04:40;;;;;;;0.94;0.30;;;;;;;7.54;51.28;100408.84;1999834;81;20383;-77
2021/11/23 13:07:52;;;;;;;2.08;0.40;;;;;;;7.57;52.09;100400.31;1997050;81;20385;-78
2021/11/23 13:10:54;;;;;;;0.75;0.31;;;;;;;7.59;52.53;100406.38;1999179;81;20436;-77
2021/11/23 13:14:12;;;;;;;1.13;0.30;;;;;;;7.61;52.29;100416.75;1998689;81;20329;-78
2021/11/23 13:17:15;;;;;;;1.30;0.30;;;;;;;7.59;52.01;100406.38;2001460;78;20320;-77
2021/11/23 13:20:47;;;;;;;0.68;0.20;;;;;;;7.60;52.53;100400.38;2003696;81;20321;-77
2021/11/23 13:23:50;;;;;;;2.24;0.34;;;;;;;7.61;52.74;100398.66;2005616;80;20326;-77
2021/11/23 13:27:13;;;;;;;2.46;0.60;;;;;;;7.58;52.86;100396.88;2003498;81;20502;-77
2021/11/23 13:30:41;;;;;;;1.36;0.60;;;;;;;7.57;53.37;100393.41;2001783;81;20830;-77
2021/11/23 13:33:52;;;;;;;3.00;0.40;;;;;;;7.56;53.69;100388.22;1996767;81;21357;-77
2021/11/23 13:36:56;;;;;;;0.91;0.39;;;;;;;7.54;53.58;100388.19;1998936;81;20271;-77
2021/11/23 13:40:20;;;;;;;0.81;0.49;;;;;;;7.49;53.98;100378.56;1998986;81;20321;-77
2021/11/23 13:43:23;;;;;;;2.15;0.30;;;;;;;7.49;54.34;100382.00;1999140;81;20987;-77
2021/11/23 13:46:37;;;;;;;1.35;0.40;;;;;;;7.46;54.38;100381.94;1998923;78;26276;-77
2021/11/23 13:49:43;;;;;;;2.09;0.30;;;;;;;7.45;54.39;100381.91;2002533;81;21066;-77
2021/11/23 13:52:53;;;;;;;0.57;0.30;;;;;;;7.42;54.63;100385.28;2003750;81;20376;-78
2021/11/23 13:56:11;;;;;;;1.79;0.30;;;;;;;7.40;54.73;100381.81;2002864;81;21317;-77
2021/11/23 13:59:16;;;;;;;1.23;0.36;;;;;;;7.37;55.04;100386.03;2003973;81;20444;-77
2021/11/23 14:02:39;;;;;;;1.06;0.30;;;;;;;7.34;55.25;100383.34;2002088;78;23821;-77
2021/11/23 14:05:50;;;;;;;0.38;0.28;;;;;;;7.31;55.09;100385.84;2002031;81;20895;-77
2021/11/23 14:08:58;;;;;;;0.82;0.39;;;;;;;7.27;55.69;100392.66;2003952;81;20349;-77
2021/11/23 14:12:02;;;;;;;1.34;0.30;;;;;;;7.21;55.43;100389.94;2003212;81;20342;-78
2021/11/23 14:15:12;;;;;;;0.89;0.60;;;;;;;7.18;55.64;100382.09;2003168;81;20189;-77
2021/11/23 14:18:17;;;;;;;2.47;0.65;;;;;;;7.14;55.63;100388.03;2002444;78;23849;-77
2021/11/23 14:21:27;;;;;;;2.04;0.69;;;;;;;7.11;55.61;100385.38;1999252;81;20173;-77
2021/11/23 14:25:33;;;;;;;0.56;0.39;;;;;;;7.08;56.12;100387.88;2002527;81;20413;-77
2021/11/23 14:28:56;;;;;;;2.39;0.47;;;;;;;7.02;56.24;100385.16;1969990;80;22496;-77
2021/11/23 14:32:13;;;;;;;2.03;0.73;;;;;;;6.99;56.82;100388.50;1998076;81;20190;-77
2021/11/23 14:35:32;;;;;;;0.90;0.35;;;;;;;6.93;56.90;100394.38;2000267;81;20328;-78
2021/11/23 14:38:59;;;;;;;0.81;0.50;;;;;;;6.89;56.91;100387.41;2001820;81;21010;-77
2021/11/23 14:42:02;;;;;;;1.64;0.55;;;;;;;6.84;57.33;100377.78;2006429;80;20837;-77
2021/11/23 14:45:08;;;;;;;1.79;0.41;;;;;;;6.80;57.73;100381.09;2002219;80;20386;-78
2021/11/23 14:48:17;;;;;;;2.11;0.50;;;;;;;6.74;58.21;100386.13;2004819;80;20437;-78
2021/11/23 14:51:37;;;;;;;2.69;0.50;;;;;;;6.68;58.30;100388.53;2002680;81;20444;-78
2021/11/23 14:54:41;;;;;;;1.77;0.57;;;;;;;6.66;58.46;100380.75;1996277;81;20345;-77
2021/11/23 14:57:48;;;;;;;1.47;0.50;;;;;;;6.61;58.66;100385.78;1999929;81;20389;-77
2021/11/23 15:00:51;;;;;;;0.66;0.50;;;;;;;6.56;58.66;100386.47;1985523;78;62585;-77
2021/11/23 15:03:54;;;;;;;1.79;0.40;;;;;;;6.52;58.85;100388.13;1990414;81;20325;-77